sensor_id;sensor_type;location;lat;lon;timestamp;P1;durP1;ratioP1;P2;durP2;ratioP2
7519;SDS011;3801;48.876;10.184;2023-02-20T00:03:50;9.37;;;4.10;;
7519;SDS011;3801;48.876;10.184;2023-02-20T00:08:53;7.60;;;3.90;;
7519;SDS011;3801;48.876;10.184;2023-02-20T00:13:58;7.43;;;3.73;;
7519;SDS011;3801;48.876;10.184;2023-02-20T00:19:01;8.17;;;4.37;;
7519;SDS011;3801;48.876;10.184;2023-02-20T00:24:05;6.80;;;3.80;;
7519;SDS011;3801;48.876;10.184;2023-02-20T00:29:10;7.13;;;3.50;;
7519;SDS011;3801;48.876;10.184;2023-02-20T00:34:16;8.67;;;4.20;;
7519;SDS011;3801;48.876;10.184;2023-02-20T00:39:19;10.23;;;3.63;;
7519;SDS011;3801;48.876;10.184;2023-02-20T00:44:24;9.30;;;4.03;;
7519;SDS011;3801;48.876;10.184;2023-02-20T00:49:27;9.07;;;3.87;;
7519;SDS011;3801;48.876;10.184;2023-02-20T00:54:46;8.53;;;4.47;;
7519;SDS011;3801;48.876;10.184;2023-02-20T00:59:51;7.57;;;4.40;;
7519;SDS011;3801;48.876;10.184;2023-02-20T01:04:55;9.33;;;4.50;;
7519;SDS011;3801;48.876;10.184;2023-02-20T01:09:58;6.60;;;3.90;;
7519;SDS011;3801;48.876;10.184;2023-02-20T01:15:03;6.10;;;3.97;;
7519;SDS011;3801;48.876;10.184;2023-02-20T01:20:07;12.27;;;4.10;;
7519;SDS011;3801;48.876;10.184;2023-02-20T01:25:12;10.07;;;4.27;;
7519;SDS011;3801;48.876;10.184;2023-02-20T01:30:16;5.27;;;3.57;;
7519;SDS011;3801;48.876;10.184;2023-02-20T01:35:20;9.43;;;4.33;;
7519;SDS011;3801;48.876;10.184;2023-02-20T01:40:24;6.63;;;4.13;;
7519;SDS011;3801;48.876;10.184;2023-02-20T01:45:33;7.10;;;4.40;;
7519;SDS011;3801;48.876;10.184;2023-02-20T01:50:38;6.70;;;4.03;;
7519;SDS011;3801;48.876;10.184;2023-02-20T01:55:44;8.67;;;4.43;;
7519;SDS011;3801;48.876;10.184;2023-02-20T02:00:51;7.63;;;4.70;;
7519;SDS011;3801;48.876;10.184;2023-02-20T02:05:56;9.97;;;4.23;;
7519;SDS011;3801;48.876;10.184;2023-02-20T02:11:01;11.00;;;4.60;;
7519;SDS011;3801;48.876;10.184;2023-02-20T02:16:10;6.47;;;3.90;;
7519;SDS011;3801;48.876;10.184;2023-02-20T02:21:21;7.97;;;4.10;;
7519;SDS011;3801;48.876;10.184;2023-02-20T02:31:58;9.57;;;4.33;;
7519;SDS011;3801;48.876;10.184;2023-02-20T02:37:06;7.93;;;4.63;;
7519;SDS011;3801;48.876;10.184;2023-02-20T02:42:11;8.43;;;4.47;;
7519;SDS011;3801;48.876;10.184;2023-02-20T02:47:18;11.80;;;4.73;;
7519;SDS011;3801;48.876;10.184;2023-02-20T02:52:25;7.37;;;3.77;;
7519;SDS011;3801;48.876;10.184;2023-02-20T02:57:47;7.57;;;4.40;;
7519;SDS011;3801;48.876;10.184;2023-02-20T03:02:53;8.77;;;4.30;;
7519;SDS011;3801;48.876;10.184;2023-02-20T03:08:00;8.93;;;3.60;;
7519;SDS011;3801;48.876;10.184;2023-02-20T03:13:03;6.00;;;3.63;;
7519;SDS011;3801;48.876;10.184;2023-02-20T03:18:12;10.40;;;4.13;;
7519;SDS011;3801;48.876;10.184;2023-02-20T03:23:21;7.53;;;3.80;;
7519;SDS011;3801;48.876;10.184;2023-02-20T03:28:26;5.07;;;4.20;;
7519;SDS011;3801;48.876;10.184;2023-02-20T03:33:32;7.63;;;3.60;;
7519;SDS011;3801;48.876;10.184;2023-02-20T03:38:57;7.20;;;3.97;;
7519;SDS011;3801;48.876;10.184;2023-02-20T03:44:20;9.37;;;3.73;;
7519;SDS011;3801;48.876;10.184;2023-02-20T03:49:26;5.33;;;3.47;;
7519;SDS011;3801;48.876;10.184;2023-02-20T03:54:32;7.70;;;3.90;;
7519;SDS011;3801;48.876;10.184;2023-02-20T03:59:37;6.40;;;3.10;;
7519;SDS011;3801;48.876;10.184;2023-02-20T04:04:43;6.03;;;4.00;;
7519;SDS011;3801;48.876;10.184;2023-02-20T04:09:49;5.37;;;3.27;;
7519;SDS011;3801;48.876;10.184;2023-02-20T04:14:52;10.53;;;4.37;;
7519;SDS011;3801;48.876;10.184;2023-02-20T04:19:56;7.20;;;3.87;;
7519;SDS011;3801;48.876;10.184;2023-02-20T04:25:05;5.73;;;3.03;;
7519;SDS011;3801;48.876;10.184;2023-02-20T04:30:09;4.70;;;2.67;;
7519;SDS011;3801;48.876;10.184;2023-02-20T04:35:14;5.03;;;2.90;;
7519;SDS011;3801;48.876;10.184;2023-02-20T04:40:22;7.17;;;3.93;;
7519;SDS011;3801;48.876;10.184;2023-02-20T04:45:26;6.80;;;3.60;;
7519;SDS011;3801;48.876;10.184;2023-02-20T04:50:30;8.27;;;3.53;;
7519;SDS011;3801;48.876;10.184;2023-02-20T04:55:37;5.57;;;3.57;;
7519;SDS011;3801;48.876;10.184;2023-02-20T05:00:45;5.83;;;3.43;;
7519;SDS011;3801;48.876;10.184;2023-02-20T05:05:48;5.73;;;3.20;;
7519;SDS011;3801;48.876;10.184;2023-02-20T05:10:53;5.57;;;3.33;;
7519;SDS011;3801;48.876;10.184;2023-02-20T05:15:56;4.17;;;2.80;;
7519;SDS011;3801;48.876;10.184;2023-02-20T05:21:00;5.73;;;3.40;;
7519;SDS011;3801;48.876;10.184;2023-02-20T05:26:22;16.63;;;3.60;;
7519;SDS011;3801;48.876;10.184;2023-02-20T05:31:26;6.87;;;3.27;;
7519;SDS011;3801;48.876;10.184;2023-02-20T05:36:29;7.37;;;2.90;;
7519;SDS011;3801;48.876;10.184;2023-02-20T05:41:34;4.93;;;3.37;;
7519;SDS011;3801;48.876;10.184;2023-02-20T05:46:38;7.67;;;3.37;;
7519;SDS011;3801;48.876;10.184;2023-02-20T05:51:42;7.13;;;3.60;;
7519;SDS011;3801;48.876;10.184;2023-02-20T05:56:46;8.93;;;3.90;;
7519;SDS011;3801;48.876;10.184;2023-02-20T06:01:54;5.40;;;3.30;;
7519;SDS011;3801;48.876;10.184;2023-02-20T06:06:58;5.30;;;3.00;;
7519;SDS011;3801;48.876;10.184;2023-02-20T06:12:03;6.63;;;4.10;;
7519;SDS011;3801;48.876;10.184;2023-02-20T06:17:06;9.90;;;3.77;;
7519;SDS011;3801;48.876;10.184;2023-02-20T06:22:09;8.97;;;3.80;;
7519;SDS011;3801;48.876;10.184;2023-02-20T06:27:14;8.60;;;4.27;;
7519;SDS011;3801;48.876;10.184;2023-02-20T06:32:18;7.33;;;4.43;;
7519;SDS011;3801;48.876;10.184;2023-02-20T06:37:22;5.83;;;3.73;;
7519;SDS011;3801;48.876;10.184;2023-02-20T06:42:26;8.37;;;4.17;;
7519;SDS011;3801;48.876;10.184;2023-02-20T06:47:30;9.50;;;3.90;;
7519;SDS011;3801;48.876;10.184;2023-02-20T06:52:33;4.53;;;3.27;;
7519;SDS011;3801;48.876;10.184;2023-02-20T06:57:38;9.80;;;3.93;;
7519;SDS011;3801;48.876;10.184;2023-02-20T07:02:41;9.17;;;3.87;;
7519;SDS011;3801;48.876;10.184;2023-02-20T07:07:45;9.90;;;4.30;;
7519;SDS011;3801;48.876;10.184;2023-02-20T07:12:49;5.80;;;3.60;;
7519;SDS011;3801;48.876;10.184;2023-02-20T07:17:53;10.70;;;3.97;;
7519;SDS011;3801;48.876;10.184;2023-02-20T07:22:56;7.13;;;3.80;;
7519;SDS011;3801;48.876;10.184;2023-02-20T07:28:01;10.73;;;3.37;;
7519;SDS011;3801;48.876;10.184;2023-02-20T07:33:05;6.90;;;3.70;;
7519;SDS011;3801;48.876;10.184;2023-02-20T07:38:08;8.23;;;3.90;;
7519;SDS011;3801;48.876;10.184;2023-02-20T07:43:13;6.77;;;3.57;;
7519;SDS011;3801;48.876;10.184;2023-02-20T07:48:16;11.93;;;3.83;;
7519;SDS011;3801;48.876;10.184;2023-02-20T07:53:20;8.47;;;4.00;;
7519;SDS011;3801;48.876;10.184;2023-02-20T07:58:24;6.20;;;3.20;;
7519;SDS011;3801;48.876;10.184;2023-02-20T08:03:28;7.63;;;3.07;;
7519;SDS011;3801;48.876;10.184;2023-02-20T08:08:31;7.90;;;3.97;;
7519;SDS011;3801;48.876;10.184;2023-02-20T08:13:36;5.37;;;2.80;;
7519;SDS011;3801;48.876;10.184;2023-02-20T08:18:40;6.87;;;2.80;;
7519;SDS011;3801;48.876;10.184;2023-02-20T08:23:43;8.77;;;3.80;;
7519;SDS011;3801;48.876;10.184;2023-02-20T08:28:48;7.70;;;3.17;;
7519;SDS011;3801;48.876;10.184;2023-02-20T08:33:53;4.03;;;3.03;;
7519;SDS011;3801;48.876;10.184;2023-02-20T08:38:56;4.13;;;2.60;;
7519;SDS011;3801;48.876;10.184;2023-02-20T08:44:02;5.23;;;3.03;;
7519;SDS011;3801;48.876;10.184;2023-02-20T08:49:05;5.27;;;2.83;;
7519;SDS011;3801;48.876;10.184;2023-02-20T08:54:08;5.40;;;3.00;;
7519;SDS011;3801;48.876;10.184;2023-02-20T08:59:13;7.87;;;4.13;;
7519;SDS011;3801;48.876;10.184;2023-02-20T09:04:17;6.17;;;3.17;;
7519;SDS011;3801;48.876;10.184;2023-02-20T09:09:22;7.70;;;2.80;;
7519;SDS011;3801;48.876;10.184;2023-02-20T09:14:27;9.33;;;3.30;;
7519;SDS011;3801;48.876;10.184;2023-02-20T09:19:30;7.10;;;2.93;;
7519;SDS011;3801;48.876;10.184;2023-02-20T09:24:34;5.37;;;2.23;;
7519;SDS011;3801;48.876;10.184;2023-02-20T09:29:38;9.43;;;2.87;;
7519;SDS011;3801;48.876;10.184;2023-02-20T09:34:44;6.10;;;2.50;;
7519;SDS011;3801;48.876;10.184;2023-02-20T09:39:47;6.87;;;2.90;;
7519;SDS011;3801;48.876;10.184;2023-02-20T09:44:54;6.77;;;2.33;;
7519;SDS011;3801;48.876;10.184;2023-02-20T09:49:59;5.07;;;2.80;;
7519;SDS011;3801;48.876;10.184;2023-02-20T09:55:04;7.43;;;2.80;;
7519;SDS011;3801;48.876;10.184;2023-02-20T10:00:11;3.27;;;2.50;;
7519;SDS011;3801;48.876;10.184;2023-02-20T10:05:18;2.90;;;2.23;;
7519;SDS011;3801;48.876;10.184;2023-02-20T10:10:24;3.07;;;2.30;;
7519;SDS011;3801;48.876;10.184;2023-02-20T10:15:30;6.27;;;2.53;;
7519;SDS011;3801;48.876;10.184;2023-02-20T10:20:39;4.13;;;2.60;;
7519;SDS011;3801;48.876;10.184;2023-02-20T10:25:44;6.70;;;3.07;;
7519;SDS011;3801;48.876;10.184;2023-02-20T10:30:54;4.83;;;2.60;;
7519;SDS011;3801;48.876;10.184;2023-02-20T10:35:59;4.33;;;2.40;;
7519;SDS011;3801;48.876;10.184;2023-02-20T10:41:05;4.00;;;1.83;;
7519;SDS011;3801;48.876;10.184;2023-02-20T10:46:12;4.90;;;2.57;;
7519;SDS011;3801;48.876;10.184;2023-02-20T10:51:20;4.13;;;2.47;;
7519;SDS011;3801;48.876;10.184;2023-02-20T10:56:29;2.73;;;2.20;;
7519;SDS011;3801;48.876;10.184;2023-02-20T11:01:34;7.07;;;2.50;;
7519;SDS011;3801;48.876;10.184;2023-02-20T11:06:38;3.77;;;2.20;;
7519;SDS011;3801;48.876;10.184;2023-02-20T11:11:44;4.43;;;2.10;;
7519;SDS011;3801;48.876;10.184;2023-02-20T11:16:50;4.40;;;2.23;;
7519;SDS011;3801;48.876;10.184;2023-02-20T11:21:54;3.93;;;2.17;;
7519;SDS011;3801;48.876;10.184;2023-02-20T11:26:59;3.70;;;2.10;;
7519;SDS011;3801;48.876;10.184;2023-02-20T11:37:33;3.97;;;2.13;;
7519;SDS011;3801;48.876;10.184;2023-02-20T11:42:54;2.70;;;2.03;;
7519;SDS011;3801;48.876;10.184;2023-02-20T11:48:05;6.07;;;2.10;;
7519;SDS011;3801;48.876;10.184;2023-02-20T11:53:18;2.83;;;2.07;;
7519;SDS011;3801;48.876;10.184;2023-02-20T11:58:21;7.73;;;2.20;;
7519;SDS011;3801;48.876;10.184;2023-02-20T12:03:26;4.50;;;2.07;;
7519;SDS011;3801;48.876;10.184;2023-02-20T12:08:33;4.70;;;1.97;;
7519;SDS011;3801;48.876;10.184;2023-02-20T12:13:37;2.10;;;1.70;;
7519;SDS011;3801;48.876;10.184;2023-02-20T12:18:44;3.27;;;1.73;;
7519;SDS011;3801;48.876;10.184;2023-02-20T12:23:58;3.30;;;1.87;;
7519;SDS011;3801;48.876;10.184;2023-02-20T12:29:05;3.67;;;2.27;;
7519;SDS011;3801;48.876;10.184;2023-02-20T12:34:17;3.57;;;2.23;;
7519;SDS011;3801;48.876;10.184;2023-02-20T12:39:26;3.60;;;1.80;;
7519;SDS011;3801;48.876;10.184;2023-02-20T12:44:38;5.07;;;2.13;;
7519;SDS011;3801;48.876;10.184;2023-02-20T12:49:52;3.37;;;1.77;;
7519;SDS011;3801;48.876;10.184;2023-02-20T12:54:59;2.30;;;1.67;;
7519;SDS011;3801;48.876;10.184;2023-02-20T13:00:14;5.27;;;1.60;;
7519;SDS011;3801;48.876;10.184;2023-02-20T13:05:24;4.03;;;1.97;;
7519;SDS011;3801;48.876;10.184;2023-02-20T13:10:32;4.03;;;1.70;;
7519;SDS011;3801;48.876;10.184;2023-02-20T13:15:37;4.23;;;1.87;;
7519;SDS011;3801;48.876;10.184;2023-02-20T13:20:45;2.63;;;1.60;;
7519;SDS011;3801;48.876;10.184;2023-02-20T13:25:51;2.57;;;1.40;;
7519;SDS011;3801;48.876;10.184;2023-02-20T13:31:05;2.67;;;1.60;;
7519;SDS011;3801;48.876;10.184;2023-02-20T13:36:17;2.73;;;1.53;;
7519;SDS011;3801;48.876;10.184;2023-02-20T13:41:22;3.20;;;1.80;;
7519;SDS011;3801;48.876;10.184;2023-02-20T13:46:25;3.37;;;1.33;;
7519;SDS011;3801;48.876;10.184;2023-02-20T13:51:35;3.93;;;1.70;;
7519;SDS011;3801;48.876;10.184;2023-02-20T13:56:44;4.93;;;1.73;;
7519;SDS011;3801;48.876;10.184;2023-02-20T14:01:54;3.03;;;1.50;;
7519;SDS011;3801;48.876;10.184;2023-02-20T14:06:58;2.70;;;1.23;;
7519;SDS011;3801;48.876;10.184;2023-02-20T14:12:05;1.80;;;1.50;;
7519;SDS011;3801;48.876;10.184;2023-02-20T14:17:12;1.90;;;1.57;;
7519;SDS011;3801;48.876;10.184;2023-02-20T14:22:24;5.77;;;1.53;;
7519;SDS011;3801;48.876;10.184;2023-02-20T14:27:31;3.60;;;1.40;;
7519;SDS011;3801;48.876;10.184;2023-02-20T14:32:35;2.90;;;1.60;;
7519;SDS011;3801;48.876;10.184;2023-02-20T14:37:39;6.13;;;1.63;;
7519;SDS011;3801;48.876;10.184;2023-02-20T14:42:47;1.37;;;1.10;;
7519;SDS011;3801;48.876;10.184;2023-02-20T14:47:51;2.07;;;1.43;;
7519;SDS011;3801;48.876;10.184;2023-02-20T14:53:02;5.20;;;2.30;;
7519;SDS011;3801;48.876;10.184;2023-02-20T14:58:09;2.97;;;1.50;;
7519;SDS011;3801;48.876;10.184;2023-02-20T15:03:18;6.13;;;1.87;;
7519;SDS011;3801;48.876;10.184;2023-02-20T15:08:32;3.97;;;1.70;;
7519;SDS011;3801;48.876;10.184;2023-02-20T15:13:39;2.87;;;1.77;;
7519;SDS011;3801;48.876;10.184;2023-02-20T15:18:43;2.37;;;1.70;;
7519;SDS011;3801;48.876;10.184;2023-02-20T15:23:50;3.67;;;1.57;;
7519;SDS011;3801;48.876;10.184;2023-02-20T15:29:12;3.83;;;1.63;;
7519;SDS011;3801;48.876;10.184;2023-02-20T15:34:20;3.50;;;1.40;;
7519;SDS011;3801;48.876;10.184;2023-02-20T15:39:26;7.37;;;2.30;;
7519;SDS011;3801;48.876;10.184;2023-02-20T15:44:31;4.20;;;1.80;;
7519;SDS011;3801;48.876;10.184;2023-02-20T15:49:34;3.93;;;1.87;;
7519;SDS011;3801;48.876;10.184;2023-02-20T15:54:37;5.27;;;2.43;;
7519;SDS011;3801;48.876;10.184;2023-02-20T15:59:42;4.17;;;1.60;;
7519;SDS011;3801;48.876;10.184;2023-02-20T16:04:46;3.20;;;1.97;;
7519;SDS011;3801;48.876;10.184;2023-02-20T16:09:49;3.77;;;1.87;;
7519;SDS011;3801;48.876;10.184;2023-02-20T16:14:54;4.20;;;2.43;;
7519;SDS011;3801;48.876;10.184;2023-02-20T16:19:58;2.20;;;1.70;;
7519;SDS011;3801;48.876;10.184;2023-02-20T16:25:01;6.00;;;2.60;;
7519;SDS011;3801;48.876;10.184;2023-02-20T16:30:07;6.30;;;2.53;;
7519;SDS011;3801;48.876;10.184;2023-02-20T16:35:21;5.63;;;1.67;;
7519;SDS011;3801;48.876;10.184;2023-02-20T16:40:26;4.90;;;2.30;;
7519;SDS011;3801;48.876;10.184;2023-02-20T16:45:31;12.60;;;5.87;;
7519;SDS011;3801;48.876;10.184;2023-02-20T16:50:36;26.03;;;10.80;;
7519;SDS011;3801;48.876;10.184;2023-02-20T16:55:39;20.83;;;8.93;;
7519;SDS011;3801;48.876;10.184;2023-02-20T17:00:48;2.40;;;1.70;;
7519;SDS011;3801;48.876;10.184;2023-02-20T17:05:58;3.80;;;2.30;;
7519;SDS011;3801;48.876;10.184;2023-02-20T17:11:02;3.47;;;1.50;;
7519;SDS011;3801;48.876;10.184;2023-02-20T17:16:10;2.90;;;1.77;;
7519;SDS011;3801;48.876;10.184;2023-02-20T17:21:31;4.23;;;1.77;;
7519;SDS011;3801;48.876;10.184;2023-02-20T17:26:34;3.67;;;2.40;;
7519;SDS011;3801;48.876;10.184;2023-02-20T17:31:39;2.87;;;1.60;;
7519;SDS011;3801;48.876;10.184;2023-02-20T17:36:43;3.87;;;1.90;;
7519;SDS011;3801;48.876;10.184;2023-02-20T17:41:50;3.20;;;1.70;;
7519;SDS011;3801;48.876;10.184;2023-02-20T17:46:57;3.17;;;2.50;;
7519;SDS011;3801;48.876;10.184;2023-02-20T17:52:01;3.37;;;2.30;;
7519;SDS011;3801;48.876;10.184;2023-02-20T17:57:05;4.90;;;2.07;;
7519;SDS011;3801;48.876;10.184;2023-02-20T18:02:10;4.57;;;1.93;;
7519;SDS011;3801;48.876;10.184;2023-02-20T18:07:14;2.40;;;1.83;;
7519;SDS011;3801;48.876;10.184;2023-02-20T18:12:18;4.97;;;2.60;;
7519;SDS011;3801;48.876;10.184;2023-02-20T18:17:23;14.40;;;6.67;;
7519;SDS011;3801;48.876;10.184;2023-02-20T18:22:27;2.13;;;1.93;;
7519;SDS011;3801;48.876;10.184;2023-02-20T18:27:31;4.47;;;2.73;;
7519;SDS011;3801;48.876;10.184;2023-02-20T18:32:36;3.67;;;2.33;;
7519;SDS011;3801;48.876;10.184;2023-02-20T18:37:40;2.80;;;2.00;;
7519;SDS011;3801;48.876;10.184;2023-02-20T18:42:44;3.50;;;2.13;;
7519;SDS011;3801;48.876;10.184;2023-02-20T18:47:49;4.40;;;2.13;;
7519;SDS011;3801;48.876;10.184;2023-02-20T18:52:53;2.90;;;2.23;;
7519;SDS011;3801;48.876;10.184;2023-02-20T18:57:57;8.63;;;5.73;;
7519;SDS011;3801;48.876;10.184;2023-02-20T19:03:02;4.93;;;3.30;;
7519;SDS011;3801;48.876;10.184;2023-02-20T19:08:05;4.67;;;2.50;;
7519;SDS011;3801;48.876;10.184;2023-02-20T19:13:08;14.13;;;6.60;;
7519;SDS011;3801;48.876;10.184;2023-02-20T19:18:13;9.10;;;3.57;;
7519;SDS011;3801;48.876;10.184;2023-02-20T19:23:17;5.47;;;3.07;;
7519;SDS011;3801;48.876;10.184;2023-02-20T19:28:20;5.50;;;3.10;;
7519;SDS011;3801;48.876;10.184;2023-02-20T19:33:26;10.53;;;5.10;;
7519;SDS011;3801;48.876;10.184;2023-02-20T19:38:29;5.53;;;2.23;;
7519;SDS011;3801;48.876;10.184;2023-02-20T19:43:33;10.60;;;4.10;;
7519;SDS011;3801;48.876;10.184;2023-02-20T19:48:38;9.80;;;4.47;;
7519;SDS011;3801;48.876;10.184;2023-02-20T19:53:41;9.33;;;2.10;;
7519;SDS011;3801;48.876;10.184;2023-02-20T19:58:45;8.33;;;2.93;;
7519;SDS011;3801;48.876;10.184;2023-02-20T20:03:49;4.23;;;2.33;;
7519;SDS011;3801;48.876;10.184;2023-02-20T20:08:53;2.20;;;1.80;;
7519;SDS011;3801;48.876;10.184;2023-02-20T20:14:14;5.90;;;3.50;;
7519;SDS011;3801;48.876;10.184;2023-02-20T20:19:19;4.20;;;2.23;;
7519;SDS011;3801;48.876;10.184;2023-02-20T20:24:22;9.40;;;4.53;;
7519;SDS011;3801;48.876;10.184;2023-02-20T20:29:26;2.50;;;1.80;;
7519;SDS011;3801;48.876;10.184;2023-02-20T20:34:30;4.50;;;2.63;;
7519;SDS011;3801;48.876;10.184;2023-02-20T20:39:34;3.23;;;1.73;;
7519;SDS011;3801;48.876;10.184;2023-02-20T20:44:37;2.67;;;1.73;;
7519;SDS011;3801;48.876;10.184;2023-02-20T20:49:42;3.13;;;1.73;;
7519;SDS011;3801;48.876;10.184;2023-02-20T20:54:46;6.73;;;3.20;;
7519;SDS011;3801;48.876;10.184;2023-02-20T20:59:50;3.10;;;1.40;;
7519;SDS011;3801;48.876;10.184;2023-02-20T21:04:57;4.33;;;1.87;;
7519;SDS011;3801;48.876;10.184;2023-02-20T21:10:11;3.40;;;2.00;;
7519;SDS011;3801;48.876;10.184;2023-02-20T21:15:15;4.60;;;1.90;;
7519;SDS011;3801;48.876;10.184;2023-02-20T21:20:21;4.97;;;2.17;;
7519;SDS011;3801;48.876;10.184;2023-02-20T21:25:25;3.40;;;1.87;;
7519;SDS011;3801;48.876;10.184;2023-02-20T21:30:29;3.97;;;1.70;;
7519;SDS011;3801;48.876;10.184;2023-02-20T21:35:34;7.70;;;2.30;;
7519;SDS011;3801;48.876;10.184;2023-02-20T21:40:37;3.30;;;1.70;;
7519;SDS011;3801;48.876;10.184;2023-02-20T21:45:41;3.53;;;1.80;;
7519;SDS011;3801;48.876;10.184;2023-02-20T21:50:47;3.50;;;2.07;;
7519;SDS011;3801;48.876;10.184;2023-02-20T21:55:51;4.10;;;2.50;;
7519;SDS011;3801;48.876;10.184;2023-02-20T22:00:54;4.57;;;3.23;;
7519;SDS011;3801;48.876;10.184;2023-02-20T22:05:58;4.20;;;2.43;;
7519;SDS011;3801;48.876;10.184;2023-02-20T22:11:01;3.47;;;2.27;;
7519;SDS011;3801;48.876;10.184;2023-02-20T22:16:22;4.80;;;2.93;;
7519;SDS011;3801;48.876;10.184;2023-02-20T22:21:45;4.77;;;2.97;;
7519;SDS011;3801;48.876;10.184;2023-02-20T22:27:06;3.20;;;2.33;;
7519;SDS011;3801;48.876;10.184;2023-02-20T22:32:28;2.13;;;1.90;;
7519;SDS011;3801;48.876;10.184;2023-02-20T22:37:50;3.80;;;2.10;;
7519;SDS011;3801;48.876;10.184;2023-02-20T22:43:12;3.00;;;1.80;;
7519;SDS011;3801;48.876;10.184;2023-02-20T22:48:33;3.67;;;1.93;;
7519;SDS011;3801;48.876;10.184;2023-02-20T22:53:55;3.70;;;1.80;;
7519;SDS011;3801;48.876;10.184;2023-02-20T22:59:16;2.40;;;1.70;;
7519;SDS011;3801;48.876;10.184;2023-02-20T23:04:37;3.17;;;1.90;;
7519;SDS011;3801;48.876;10.184;2023-02-20T23:09:59;4.40;;;1.83;;
7519;SDS011;3801;48.876;10.184;2023-02-20T23:15:20;3.23;;;2.00;;
7519;SDS011;3801;48.876;10.184;2023-02-20T23:20:41;3.57;;;1.87;;
7519;SDS011;3801;48.876;10.184;2023-02-20T23:26:04;3.53;;;1.90;;
7519;SDS011;3801;48.876;10.184;2023-02-20T23:31:31;5.17;;;2.20;;
7519;SDS011;3801;48.876;10.184;2023-02-20T23:36:52;4.33;;;1.70;;
7519;SDS011;3801;48.876;10.184;2023-02-20T23:42:15;2.00;;;1.70;;
7519;SDS011;3801;48.876;10.184;2023-02-20T23:47:36;4.47;;;2.33;;
7519;SDS011;3801;48.876;10.184;2023-02-20T23:52:59;3.60;;;2.03;;
7519;SDS011;3801;48.876;10.184;2023-02-20T23:58:21;5.17;;;2.10;;
